KMHR

Sacramento Mather Airport

Sacramento, California, USA
KMHR 182324Z 1900/1924 VRB05KT P6SM OVC050 FM190300 13004KT P6SM VCSH OVC050 FM190800 15005KT P6SM OVC050
Issued Valid From Valid To
Jan-18 @ 23:24 UTC
(3 hours ago)
Jan-19 @ 00:00 UTC
(2 hours ago)
Jan-20 @ 00:00 UTC
(in 22 hours)
Jan-19 @ 00:00 to Jan-19 @ 03:00
KMHR 182324Z 1900/1924 VRB05KT P6SM OVC050
Wind Visibility Clouds
Variable at 5 knots Greater than 6 miles
  • Overcast at 5,000' AGL
From Jan-19 @ 03:00 to Jan-19 @ 08:00
FM190300 13004KT P6SM VCSH OVC050
Wind Visibility Clouds
130° at 4 knots Greater than 6 miles
  • Overcast at 5,000' AGL
From Jan-19 @ 08:00 to Jan-20 @ 00:00
FM190800 15005KT P6SM OVC050
Wind Visibility Clouds
150° at 5 knots Greater than 6 miles
  • Overcast at 5,000' AGL
KMHR 182324Z 1900/1924 VRB05KT P6SM OVC050 FM190300 13004KT P6SM VCSH OVC050 FM190800 15005KT P6SM OVC050
Issued Jan-18 @ 23:24 UTC
(3 hours ago)
Valid From Jan-19 @ 00:00 UTC
(2 hours ago)
Valid To Jan-20 @ 00:00 UTC
(in 22 hours)
Jan-19 @ 00:00 - Jan-19 @ 03:00
Wind Visibility
Variable at 5 knots Greater than 6 miles
Clouds
  • Overcast at 5,000' AGL
From Jan-19 @ 03:00 - Jan-19 @ 08:00
Wind Visibility
130° at 4 knots Greater than 6 miles
Clouds
  • Overcast at 5,000' AGL
From Jan-19 @ 08:00 - Jan-20 @ 00:00
Wind Visibility
150° at 5 knots Greater than 6 miles
Clouds
  • Overcast at 5,000' AGL